Time;durP1;ratioP1;P1;durP2;ratioP2;P2;SDS_P1;SDS_P2;PMS_P1;PMS_P2;Temp;Humidity;BMP_temperature;BMP_pressure;BME280_temperature;BME280_humidity;BME280_pressure;Samples;Min_cycle;Max_cycle;Signal;HPM_P1;HPM_P2
2024/04/02 00:00:53;;;;;;;3.47;1.27;;;;;;;12.75;53.35;100114.47;4970585;28;114325;-81
2024/04/02 00:03:19;;;;;;;1.83;1.10;;;;;;;12.73;53.41;100127.84;4957041;28;114562;-82
2024/04/02 00:05:45;;;;;;;2.38;1.45;;;;;;;12.73;53.45;100121.69;4944275;28;124330;-81
2024/04/02 00:08:11;;;;;;;3.63;1.40;;;;;;;12.71;53.40;100118.28;4951094;28;124904;-81
2024/04/02 00:10:38;;;;;;;2.20;1.40;;;;;;;12.68;53.43;100118.47;4954638;28;113255;-81
2024/04/02 00:13:05;;;;;;;3.55;1.42;;;;;;;12.68;53.49;100123.78;4940063;28;113255;-81
2024/04/02 00:15:31;;;;;;;2.95;1.20;;;;;;;12.64;53.48;100118.69;4953181;28;124499;-81
2024/04/02 00:18:01;;;;;;;2.22;1.20;;;;;;;12.64;53.51;100118.69;4951066;28;123516;-82
2024/04/02 00:20:27;;;;;;;3.85;1.40;;;;;;;12.61;53.50;100118.88;4954941;28;114039;-81
2024/04/02 00:22:53;;;;;;;2.03;1.30;;;;;;;12.59;53.57;100120.78;4952806;28;114077;-81
2024/04/02 00:25:20;;;;;;;2.88;1.40;;;;;;;12.54;53.57;100122.88;4951930;28;125785;-80
2024/04/02 00:27:46;;;;;;;2.33;1.23;;;;;;;12.53;53.71;100120.34;4957906;28;124446;-81
2024/04/02 00:30:23;;;;;;;1.67;1.20;;;;;;;12.49;53.69;100119.69;4952616;28;114905;-81
2024/04/02 00:32:49;;;;;;;3.45;1.50;;;;;;;12.46;53.81;100127.84;4940928;28;115739;-80
2024/04/02 00:35:15;;;;;;;3.05;1.30;;;;;;;12.44;53.86;100137.72;4944840;28;123537;-81
2024/04/02 00:37:42;;;;;;;2.70;1.70;;;;;;;12.41;53.92;100140.56;4949400;28;123777;-80
2024/04/02 00:40:08;;;;;;;3.47;1.30;;;;;;;12.38;53.99;100138.13;4937057;28;113711;-81
2024/04/02 00:42:34;;;;;;;2.78;1.20;;;;;;;12.35;54.04;100143.63;4938834;28;113081;-81
2024/04/02 00:45:01;;;;;;;5.00;1.70;;;;;;;12.32;54.05;100149.09;4949519;28;125720;-81
2024/04/02 00:47:28;;;;;;;3.15;1.55;;;;;;;12.29;54.13;100154.63;4935874;28;124641;-81
2024/04/02 00:50:12;;;;;;;2.45;1.30;;;;;;;12.27;54.30;100152.91;4963579;28;114448;-81
2024/04/02 00:52:41;;;;;;;2.72;1.50;;;;;;;12.25;54.25;100154.81;4987042;28;114242;-79
2024/04/02 00:55:08;;;;;;;2.28;1.30;;;;;;;12.23;54.27;100159.38;4952307;28;125659;-79
2024/04/02 00:57:34;;;;;;;2.85;1.50;;;;;;;12.22;54.59;100155.03;4954856;28;123533;-79
2024/04/02 01:00:00;;;;;;;2.95;1.42;;;;;;;12.21;54.44;100157.78;4953320;28;113253;-79
2024/04/02 01:02:27;;;;;;;1.58;1.30;;;;;;;12.18;54.41;100158.81;4948365;28;114076;-79
2024/04/02 01:04:53;;;;;;;3.60;1.33;;;;;;;12.17;54.55;100162.41;4970965;28;123894;-79
2024/04/02 01:07:19;;;;;;;2.95;1.50;;;;;;;12.16;54.59;100160.69;4944467;28;125694;-79
2024/04/02 01:09:46;;;;;;;2.65;1.40;;;;;;;12.15;54.73;100158.13;4954543;28;114206;-79
2024/04/02 01:12:12;;;;;;;2.38;1.20;;;;;;;12.14;54.76;100165.25;4952493;28;112880;-79
2024/04/02 01:14:40;;;;;;;3.10;1.58;;;;;;;12.12;54.79;100159.19;4946901;28;123355;-79
2024/04/02 01:17:06;;;;;;;2.58;1.40;;;;;;;12.10;54.66;100166.41;4964608;28;124100;-79
2024/04/02 01:19:33;;;;;;;2.17;1.30;;;;;;;12.09;54.75;100170.00;4946799;28;115318;-79
2024/04/02 01:21:59;;;;;;;1.95;1.20;;;;;;;12.08;54.96;100163.00;4939078;28;113972;-79
2024/04/02 01:24:29;;;;;;;2.42;1.33;;;;;;;12.07;54.71;100171.88;4951983;28;124723;-79
2024/04/02 01:26:56;;;;;;;2.90;1.33;;;;;;;12.05;55.00;100179.09;4941416;28;125044;-79
2024/04/02 01:29:22;;;;;;;2.42;1.15;;;;;;;12.04;54.89;100182.72;4967825;28;113688;-79
2024/04/02 01:31:48;;;;;;;2.80;1.17;;;;;;;12.01;54.97;100177.59;4951798;28;115064;-79
2024/04/02 01:34:14;;;;;;;1.98;1.30;;;;;;;12.01;55.01;100182.91;4953155;28;125771;-79
2024/04/02 01:36:41;;;;;;;3.80;1.48;;;;;;;11.99;55.03;100184.78;4939716;28;124542;-79
2024/04/02 01:39:07;;;;;;;3.65;1.50;;;;;;;11.96;55.21;100182.31;4957960;28;113243;-79
2024/04/02 01:41:34;;;;;;;3.17;1.60;;;;;;;11.96;55.15;100179.66;4945910;28;113154;-79
2024/04/02 01:44:04;;;;;;;2.60;1.80;;;;;;;11.94;55.21;100187.75;4931126;28;122914;-79
2024/04/02 01:46:30;;;;;;;3.25;1.58;;;;;;;11.92;55.19;100188.75;4950405;28;123223;-79
2024/04/02 01:48:57;;;;;;;2.92;1.65;;;;;;;11.91;55.51;100181.78;4946389;28;115283;-79
2024/04/02 01:51:25;;;;;;;4.60;1.73;;;;;;;11.88;55.56;100188.94;4950598;28;113936;-79
2024/04/02 01:53:52;;;;;;;3.35;1.40;;;;;;;11.90;55.51;100190.66;4931016;28;124813;-79
2024/04/02 01:56:18;;;;;;;4.63;1.83;;;;;;;11.90;55.62;100185.34;4956545;28;123879;-79
2024/04/02 01:58:44;;;;;;;3.10;1.55;;;;;;;11.90;55.79;100180.03;4949814;28;115304;-78
2024/04/02 02:01:10;;;;;;;5.13;1.60;;;;;;;11.87;55.72;100184.56;4968348;28;114494;-79
2024/04/02 02:03:36;;;;;;;3.10;1.60;;;;;;;11.86;55.79;100185.50;4933777;28;123262;-79
2024/04/02 02:06:03;;;;;;;3.35;1.55;;;;;;;11.87;55.92;100197.84;4931011;28;123805;-79
2024/04/02 02:08:30;;;;;;;2.92;1.67;;;;;;;11.88;56.01;100188.06;4949252;28;115632;-79
2024/04/02 02:10:56;;;;;;;4.38;1.63;;;;;;;11.87;56.00;100192.53;4960422;28;114425;-79
2024/04/02 02:13:23;;;;;;;3.38;1.52;;;;;;;11.86;56.23;100201.41;4940488;28;124643;-78
2024/04/02 02:16:02;;;;;;;2.40;1.50;;;;;;;11.86;56.00;100196.09;4955286;28;124308;-79
2024/04/02 02:18:30;;;;;;;3.72;1.77;;;;;;;11.85;56.18;100194.41;4944978;28;112559;-79
2024/04/02 02:20:56;;;;;;;2.53;1.80;;;;;;;11.86;56.40;100193.47;4953636;28;113300;-79
2024/04/02 02:23:23;;;;;;;3.92;1.70;;;;;;;11.85;56.29;100199.72;4929460;28;123431;-78
2024/04/02 02:25:50;;;;;;;5.97;1.50;;;;;;;11.86;56.35;100201.41;4936019;28;122901;-79
2024/04/02 02:28:16;;;;;;;3.90;1.48;;;;;;;11.87;56.25;100202.28;4952053;28;114735;-80
2024/04/02 02:30:43;;;;;;;2.97;1.40;;;;;;;11.86;56.16;100206.72;4955159;28;114979;-81
2024/04/02 02:33:29;;;;;;;2.47;1.60;;;;;;;11.84;56.41;100211.28;4930608;28;123552;-81
2024/04/02 02:35:55;;;;;;;2.75;1.40;;;;;;;11.83;56.34;100212.25;4960678;28;123695;-80
2024/04/02 02:38:21;;;;;;;3.63;1.50;;;;;;;11.82;56.36;100215.81;4938939;28;113773;-81
2024/04/02 02:40:48;;;;;;;5.00;1.60;;;;;;;11.81;56.59;100219.44;4961472;28;113304;-80
2024/04/02 02:47:23;;;;;;;6.00;1.58;;;;;;;11.77;56.40;100227.66;4974829;28;124302;-80
2024/04/02 02:50:12;;;;;;;3.72;1.60;;;;;;;11.75;56.25;100233.06;4966037;28;114224;-79
2024/04/02 02:52:38;;;;;;;4.20;1.60;;;;;;;11.74;56.56;100239.31;4943517;28;113279;-79
2024/04/02 02:58:52;;;;;;;5.15;2.25;;;;;;;11.69;56.40;100236.06;4933446;28;122519;-79
2024/04/02 03:01:18;;;;;;;6.30;2.10;;;;;;;11.68;56.75;100239.69;4922041;28;114583;-79
2024/04/02 03:03:48;;;;;;;5.43;1.77;;;;;;;11.68;56.78;100245.00;4917374;28;115542;-79
2024/04/02 03:06:14;;;;;;;2.42;1.52;;;;;;;11.66;56.59;100238.94;4923928;28;124805;-79
2024/04/02 03:08:41;;;;;;;5.28;1.65;;;;;;;11.66;56.73;100241.59;4913053;28;123708;-79
2024/04/02 03:11:08;;;;;;;5.00;1.80;;;;;;;11.65;56.70;100237.22;4894278;28;115617;-79
2024/04/02 03:13:34;;;;;;;3.28;1.80;;;;;;;11.65;56.87;100234.56;4904164;28;113407;-79
2024/04/02 03:16:03;;;;;;;3.80;1.48;;;;;;;11.64;56.84;100243.44;4894447;28;125592;-79
2024/04/02 03:18:30;;;;;;;5.28;1.63;;;;;;;11.63;56.97;100236.44;4898430;28;124172;-79
2024/04/02 03:20:59;;;;;;;2.63;1.65;;;;;;;11.64;56.81;100243.44;4905216;28;114087;-79
2024/04/02 03:23:27;;;;;;;3.45;1.50;;;;;;;11.62;56.85;100243.56;4910430;28;113394;-78
2024/04/02 03:25:54;;;;;;;3.13;1.45;;;;;;;11.63;57.01;100252.38;4915040;28;124564;-79
2024/04/02 03:28:21;;;;;;;4.20;1.75;;;;;;;11.62;56.83;100245.34;4938776;28;124953;-79
2024/04/02 03:30:47;;;;;;;4.40;1.67;;;;;;;11.60;57.15;100252.53;4952660;28;115048;-79
2024/04/02 03:33:14;;;;;;;4.18;1.70;;;;;;;11.59;57.10;100245.53;4972940;28;114045;-79
2024/04/02 03:35:40;;;;;;;4.93;1.75;;;;;;;11.59;57.05;100248.19;4953006;28;125023;-79
2024/04/02 03:38:07;;;;;;;4.47;1.60;;;;;;;11.57;57.15;100252.72;4931930;28;124293;-79
2024/04/02 03:40:39;;;;;;;3.58;1.70;;;;;;;11.56;57.11;100256.31;4952336;28;115444;-78
2024/04/02 03:43:06;;;;;;;4.68;1.70;;;;;;;11.54;56.94;100258.19;4954052;28;114773;-79
2024/04/02 03:45:39;;;;;;;5.65;1.75;;;;;;;11.50;57.29;100263.69;4950594;28;123507;-78
2024/04/02 03:48:06;;;;;;;4.45;1.92;;;;;;;11.52;57.25;100260.09;4949869;28;125754;-79
2024/04/02 03:50:33;;;;;;;4.47;1.65;;;;;;;11.49;57.04;100261.97;4947604;28;114312;-78
2024/04/02 03:52:59;;;;;;;2.75;1.88;;;;;;;11.49;56.89;100267.28;4950797;28;115559;-79
2024/04/02 03:55:25;;;;;;;2.28;1.40;;;;;;;11.49;57.40;100272.59;4937529;28;124135;-79
2024/04/02 03:57:51;;;;;;;6.00;2.35;;;;;;;11.50;57.25;100279.59;4935386;28;125361;-79
2024/04/02 04:00:18;;;;;;;4.70;1.65;;;;;;;11.49;57.28;100271.75;4931582;28;115217;-79
2024/04/02 04:02:45;;;;;;;4.55;2.00;;;;;;;11.48;57.11;100276.16;4937293;28;113853;-79
2024/04/02 04:05:11;;;;;;;4.35;1.88;;;;;;;11.49;57.33;100274.41;4950537;28;124099;-79
2024/04/02 04:07:37;;;;;;;3.53;1.60;;;;;;;11.48;57.26;100276.16;4955057;28;123817;-79
2024/04/02 04:10:03;;;;;;;3.10;1.45;;;;;;;11.48;57.25;100280.63;4956440;28;115885;-79
2024/04/02 04:12:30;;;;;;;5.85;1.80;;;;;;;11.49;57.50;100283.19;4959896;28;113020;-79
2024/04/02 04:14:56;;;;;;;3.78;1.85;;;;;;;11.48;57.38;100284.13;4959817;28;123458;-79
2024/04/02 04:17:22;;;;;;;4.70;2.95;;;;;;;11.48;57.75;100286.78;4951773;28;124294;-79
2024/04/02 04:19:48;;;;;;;3.25;1.77;;;;;;;11.47;57.37;100295.69;4951644;28;113284;-79
2024/04/02 04:22:14;;;;;;;3.83;1.98;;;;;;;11.48;57.51;100294.75;4951910;28;113594;-79
2024/04/02 04:24:42;;;;;;;3.65;1.58;;;;;;;11.48;57.34;100297.38;4947724;28;122889;-79
2024/04/02 04:27:08;;;;;;;2.08;1.30;;;;;;;11.46;57.59;100301.09;4975425;28;123321;-78
2024/04/02 04:29:35;;;;;;;3.50;1.77;;;;;;;11.46;57.70;100301.94;4957046;28;112398;-78
2024/04/02 04:32:01;;;;;;;4.43;1.92;;;;;;;11.48;57.92;100307.16;4950885;28;113227;-79
2024/04/02 04:34:27;;;;;;;3.08;1.65;;;;;;;11.49;57.83;100314.19;4945651;28;122869;-79
2024/04/02 04:36:55;;;;;;;3.83;1.90;;;;;;;11.50;57.67;100316.72;4941828;28;124869;-79
2024/04/02 04:39:21;;;;;;;4.22;1.70;;;;;;;11.52;57.81;100318.44;4962721;28;116039;-78
2024/04/02 04:41:47;;;;;;;4.03;1.80;;;;;;;11.51;57.65;100317.59;4958692;28;113940;-79
2024/04/02 04:44:13;;;;;;;5.97;1.70;;;;;;;11.52;57.72;100321.09;4962053;28;122076;-77
2024/04/02 04:46:39;;;;;;;4.53;1.77;;;;;;;11.53;57.78;100325.44;4960481;28;124095;-79
2024/04/02 04:49:06;;;;;;;4.43;1.85;;;;;;;11.54;58.04;100327.16;4978538;28;113595;-78
2024/04/02 04:51:32;;;;;;;4.60;2.00;;;;;;;11.56;57.88;100330.56;4964071;28;113234;-77
2024/04/02 04:53:58;;;;;;;2.75;1.55;;;;;;;11.55;57.79;100329.72;4977934;28;122262;-78
2024/04/02 04:56:24;;;;;;;4.13;1.75;;;;;;;11.57;57.91;100327.00;4957984;28;123899;-78
2024/04/02 04:58:50;;;;;;;3.97;1.60;;;;;;;11.58;57.89;100329.53;4974361;28;114227;-77
2024/04/02 05:01:17;;;;;;;3.70;1.70;;;;;;;11.60;58.10;100334.75;4990527;28;113453;-78
2024/04/02 05:03:43;;;;;;;3.65;1.48;;;;;;;11.61;57.96;100325.88;4981697;28;125098;-79
2024/04/02 05:06:09;;;;;;;4.63;1.70;;;;;;;11.64;58.13;100338.94;4950344;28;123276;-78
2024/04/02 05:08:36;;;;;;;4.78;1.38;;;;;;;11.67;58.04;100344.06;4952688;28;113073;-80
2024/04/02 05:11:07;;;;;;;2.42;1.33;;;;;;;11.68;58.03;100341.34;4928627;28;115255;-79
2024/04/02 05:13:34;;;;;;;3.45;1.58;;;;;;;11.73;58.10;100350.81;4947105;28;125307;-79
2024/04/02 05:16:01;;;;;;;2.75;1.42;;;;;;;11.76;58.21;100348.84;4947501;28;123329;-79
2024/04/02 05:18:28;;;;;;;5.30;1.30;;;;;;;11.78;58.09;100349.63;4940997;28;114084;-79
2024/04/02 05:20:54;;;;;;;4.35;1.58;;;;;;;11.81;58.02;100352.09;4959517;28;114103;-79
2024/04/02 05:23:21;;;;;;;3.63;1.27;;;;;;;11.83;57.96;100350.22;4951977;28;123494;-79
2024/04/02 05:25:47;;;;;;;4.13;1.33;;;;;;;11.85;57.97;100348.31;4950629;28;124772;-79
2024/04/02 05:28:13;;;;;;;4.32;1.33;;;;;;;11.86;57.98;100360.63;4964483;28;115016;-79
2024/04/02 05:30:39;;;;;;;2.30;1.38;;;;;;;11.87;57.89;100367.66;4946150;28;115899;-78
2024/04/02 05:33:06;;;;;;;2.05;1.15;;;;;;;11.90;57.80;100373.75;4952085;28;123908;-79
2024/04/02 05:35:33;;;;;;;2.83;1.23;;;;;;;11.90;57.95;100371.09;4932490;28;121940;-79
2024/04/02 05:37:59;;;;;;;3.45;1.25;;;;;;;11.91;57.94;100378.13;4949381;28;114966;-79
2024/04/02 05:40:25;;;;;;;6.18;1.42;;;;;;;11.91;57.98;100367.53;4962528;28;113952;-79
2024/04/02 05:42:51;;;;;;;2.40;1.40;;;;;;;11.92;57.82;100374.53;4976285;28;124218;-79
2024/04/02 05:45:18;;;;;;;4.10;1.30;;;;;;;11.91;58.05;100368.38;4960042;28;123050;-79
2024/04/02 05:47:44;;;;;;;2.35;1.45;;;;;;;11.93;57.89;100381.56;4951193;28;114079;-79
2024/04/02 05:50:11;;;;;;;4.55;1.42;;;;;;;11.92;57.75;100377.19;4946123;28;113004;-79
2024/04/02 05:52:37;;;;;;;4.10;1.50;;;;;;;11.93;57.74;100378.91;4948705;28;125144;-79
2024/04/02 05:55:04;;;;;;;3.40;1.40;;;;;;;11.94;57.77;100375.28;4947659;28;123797;-79
2024/04/02 05:57:31;;;;;;;5.07;1.73;;;;;;;11.94;57.89;100389.44;4936866;28;115202;-79
2024/04/02 06:04:46;;;;;;;6.20;1.42;;;;;;;11.91;57.86;100388.75;4982845;28;124714;-81
2024/04/02 06:08:25;;;;;;;5.35;1.60;;;;;;;11.91;57.90;100399.38;4968314;28;124706;-80
2024/04/02 06:10:51;;;;;;;7.20;1.23;;;;;;;11.94;57.88;100401.81;4959328;28;114547;-79
2024/04/02 06:13:17;;;;;;;6.25;1.70;;;;;;;11.98;58.18;100400.69;4946355;28;113912;-79
2024/04/02 06:15:44;;;;;;;5.30;1.30;;;;;;;12.04;58.39;100405.66;4945675;28;123542;-79
2024/04/02 06:18:10;;;;;;;5.75;1.70;;;;;;;12.12;58.21;100398.09;4943185;28;123105;-79
2024/04/02 06:20:36;;;;;;;4.75;1.40;;;;;;;12.21;58.42;100402.88;4931566;28;116448;-78
2024/04/02 06:23:03;;;;;;;8.23;1.55;;;;;;;12.29;58.49;100405.06;4937526;28;113914;-79
2024/04/02 06:25:30;;;;;;;6.25;1.50;;;;;;;12.37;58.29;100407.28;4954295;28;125293;-79
2024/04/02 06:27:56;;;;;;;5.15;1.58;;;;;;;12.45;58.47;100415.63;4944610;28;122885;-79
2024/04/02 06:30:22;;;;;;;4.43;1.50;;;;;;;12.51;58.27;100412.63;4941671;28;115149;-79
2024/04/02 06:32:48;;;;;;;5.18;1.80;;;;;;;12.57;58.38;100414.91;4966116;28;114050;-78
2024/04/02 06:35:15;;;;;;;4.35;1.33;;;;;;;12.63;58.41;100419.84;4933621;28;124863;-78
2024/04/02 06:37:41;;;;;;;6.55;1.65;;;;;;;12.70;58.42;100414.16;4938795;28;123929;-79
2024/04/02 06:40:07;;;;;;;4.57;1.33;;;;;;;12.75;58.48;100420.03;4927847;28;113995;-77
2024/04/02 06:42:33;;;;;;;4.15;1.60;;;;;;;12.81;58.13;100417.03;4963714;28;113746;-78
2024/04/02 06:45:00;;;;;;;5.90;1.70;;;;;;;12.87;58.27;100421.97;4961762;28;125786;-78
2024/04/02 06:47:26;;;;;;;4.45;1.52;;;;;;;12.92;58.22;100425.19;4943432;28;124932;-77
2024/04/02 06:49:52;;;;;;;3.17;1.73;;;;;;;12.97;58.34;100431.06;4948491;28;115736;-78
2024/04/02 06:52:18;;;;;;;9.52;1.98;;;;;;;13.03;58.22;100428.06;4932190;28;115175;-78
2024/04/02 06:54:45;;;;;;;10.18;2.08;;;;;;;13.10;58.10;100430.31;4937591;28;124110;-79
2024/04/02 06:57:11;;;;;;;4.72;1.60;;;;;;;13.13;58.21;100430.09;4922191;28;123245;-79
2024/04/02 06:59:38;;;;;;;7.05;1.63;;;;;;;13.19;58.25;100427.09;4946262;28;113986;-78
2024/04/02 07:02:05;;;;;;;4.45;1.40;;;;;;;13.25;58.16;100438.19;4949121;28;114794;-80
2024/04/02 07:04:32;;;;;;;3.50;1.52;;;;;;;13.31;58.09;100431.66;4946496;28;123175;-78
2024/04/02 07:06:58;;;;;;;5.07;1.35;;;;;;;13.36;58.03;100429.56;4944739;28;125288;-78
2024/04/02 07:09:25;;;;;;;8.15;1.55;;;;;;;13.42;58.03;100434.47;4954794;28;116263;-81
2024/04/02 07:11:51;;;;;;;5.13;1.30;;;;;;;13.48;58.01;100443.03;4949639;28;114812;-78
2024/04/02 07:14:17;;;;;;;8.68;1.63;;;;;;;13.52;57.92;100439.22;4943266;28;123490;-82
2024/04/02 07:16:44;;;;;;;6.13;1.50;;;;;;;13.55;57.96;100449.69;4952503;28;125803;-84
2024/04/02 07:19:10;;;;;;;7.65;1.55;;;;;;;13.59;57.83;100445.88;4933512;28;113336;-81
2024/04/02 07:21:36;;;;;;;8.65;1.65;;;;;;;13.62;57.86;100456.31;4934387;28;114843;-81
2024/04/02 07:24:02;;;;;;;6.97;1.55;;;;;;;13.66;57.34;100451.66;4952499;28;124290;-81
2024/04/02 07:26:29;;;;;;;3.90;1.50;;;;;;;13.68;57.45;100463.91;4948083;28;123928;-81
2024/04/02 07:28:55;;;;;;;8.80;1.30;;;;;;;13.68;57.48;100455.91;4950608;28;114267;-81
2024/04/02 07:31:24;;;;;;;5.80;1.50;;;;;;;13.68;57.35;100450.59;4940043;28;114505;-83
2024/04/02 07:33:51;;;;;;;7.13;1.50;;;;;;;13.70;57.36;100454.00;4952611;28;127084;-82
2024/04/02 07:36:18;;;;;;;4.93;1.15;;;;;;;13.71;57.25;100461.06;4936519;28;122901;-80
2024/04/02 07:38:45;;;;;;;7.38;1.33;;;;;;;13.73;57.35;100467.13;4953521;28;112474;-81
2024/04/02 07:41:11;;;;;;;5.57;1.27;;;;;;;13.74;57.33;100471.50;4936730;28;113711;-81
2024/04/02 07:43:37;;;;;;;5.80;1.60;;;;;;;13.76;57.24;100469.56;4951385;28;124839;-81
2024/04/02 07:46:03;;;;;;;6.25;1.70;;;;;;;13.79;57.14;100458.75;4948462;28;123014;-83
2024/04/02 07:48:30;;;;;;;6.55;1.85;;;;;;;13.82;57.22;100466.53;4943168;28;113862;-83
2024/04/02 07:50:58;;;;;;;10.50;1.67;;;;;;;13.85;56.98;100468.13;4950087;28;115176;-88
2024/04/02 07:53:24;;;;;;;3.85;1.35;;;;;;;13.89;57.06;100463.47;4972325;28;123427;-88
2024/04/02 07:55:50;;;;;;;4.07;1.45;;;;;;;13.95;57.00;100468.38;4965147;28;122305;-85
2024/04/02 07:58:17;;;;;;;5.63;1.27;;;;;;;13.98;57.00;100468.22;4983060;28;114560;-85
2024/04/02 08:00:44;;;;;;;4.70;1.42;;;;;;;14.03;57.24;100471.41;4954693;28;114293;-85
2024/04/02 08:03:10;;;;;;;7.13;1.25;;;;;;;14.06;56.99;100465.88;4955777;28;122168;-87
2024/04/02 08:05:36;;;;;;;9.57;1.67;;;;;;;14.11;57.00;100468.22;4991362;28;123115;-88
2024/04/02 08:08:03;;;;;;;4.15;1.20;;;;;;;14.14;56.80;100479.53;4997522;28;114156;-86
2024/04/02 08:10:29;;;;;;;8.48;1.55;;;;;;;14.16;56.78;100477.63;4971070;28;113173;-84
2024/04/02 08:12:55;;;;;;;6.72;1.67;;;;;;;14.20;56.77;100473.81;4987306;28;123369;-86
2024/04/02 08:15:21;;;;;;;8.45;1.25;;;;;;;14.25;56.73;100485.97;4965780;28;124538;-81
2024/04/02 08:17:48;;;;;;;4.32;1.30;;;;;;;14.28;56.70;100485.75;4941879;28;114948;-81
2024/04/02 08:20:14;;;;;;;5.53;1.25;;;;;;;14.32;56.66;100481.97;4950669;28;115104;-82
2024/04/02 08:22:41;;;;;;;8.13;1.30;;;;;;;14.35;56.49;100476.41;4953026;28;123897;-85
2024/04/02 08:25:07;;;;;;;4.43;1.52;;;;;;;14.37;56.39;100490.47;4932504;28;125918;-81
2024/04/02 08:27:34;;;;;;;6.75;1.50;;;;;;;14.38;56.36;100487.72;4954252;28;115114;-87
2024/04/02 08:30:00;;;;;;;6.07;1.55;;;;;;;14.39;56.35;100493.88;4953620;28;114008;-82
2024/04/02 08:32:26;;;;;;;4.82;1.67;;;;;;;14.41;56.12;100505.31;4951890;28;124421;-89
2024/04/02 08:34:52;;;;;;;5.43;1.60;;;;;;;14.42;56.29;100499.03;4979371;28;124648;-86
2024/04/02 08:37:19;;;;;;;5.43;1.55;;;;;;;14.43;56.23;100495.41;4969462;28;115849;-88
2024/04/02 08:39:45;;;;;;;5.10;1.52;;;;;;;14.46;56.16;100510.34;4962633;28;113498;-88
2024/04/02 08:42:13;;;;;;;5.80;1.30;;;;;;;14.49;56.21;100505.66;4980595;28;124818;-87
2024/04/02 08:44:41;;;;;;;6.80;1.38;;;;;;;14.53;56.22;100500.97;4973891;28;122308;-87
2024/04/02 08:47:08;;;;;;;4.68;1.27;;;;;;;14.58;56.18;100510.41;4975949;28;114421;-86
2024/04/02 08:49:34;;;;;;;5.03;1.40;;;;;;;14.65;56.05;100515.31;4965566;28;114899;-88
2024/04/02 08:52:01;;;;;;;4.53;1.20;;;;;;;14.71;55.91;100514.91;4981566;28;124671;-86
2024/04/02 08:54:29;;;;;;;9.05;1.33;;;;;;;14.73;56.02;100510.31;4964417;28;123247;-84
2024/04/02 08:56:57;;;;;;;2.55;1.10;;;;;;;14.76;55.90;100512.78;4969333;28;113498;-85
2024/04/02 08:59:26;;;;;;;5.00;1.10;;;;;;;14.82;55.66;100507.03;4997463;28;114326;-85
2024/04/02 09:01:57;;;;;;;8.32;1.60;;;;;;;14.86;55.76;100519.22;4979452;28;123606;-83
2024/04/02 09:04:25;;;;;;;5.22;1.30;;;;;;;14.89;55.81;100524.31;4957027;28;123868;-89
2024/04/02 09:06:51;;;;;;;4.57;1.30;;;;;;;14.93;55.64;100525.81;4964791;28;114623;-80
2024/04/02 09:09:27;;;;;;;4.05;1.20;;;;;;;14.95;55.70;100523.88;4960049;28;114958;-83
2024/04/02 09:11:53;;;;;;;4.68;1.23;;;;;;;14.98;55.56;100523.69;4934990;28;123339;-81
2024/04/02 09:14:20;;;;;;;7.70;1.70;;;;;;;15.03;55.49;100519.84;4960230;28;123664;-83
2024/04/02 09:16:47;;;;;;;5.10;1.27;;;;;;;15.09;55.58;100530.13;4955429;28;115206;-81
2024/04/02 09:19:13;;;;;;;6.00;1.40;;;;;;;15.18;55.66;100521.44;4952012;28;112377;-82
2024/04/02 09:21:40;;;;;;;7.07;1.20;;;;;;;15.29;55.47;100520.72;4966969;28;123847;-81
2024/04/02 09:24:10;;;;;;;3.78;1.13;;;;;;;15.40;55.58;100527.97;4967150;28;124064;-81
2024/04/02 09:26:37;;;;;;;6.65;1.45;;;;;;;15.50;55.51;100531.69;4930986;28;115086;-82
2024/04/02 09:29:03;;;;;;;6.85;1.30;;;;;;;15.61;55.59;100531.78;4951465;28;113808;-82
2024/04/02 09:31:33;;;;;;;6.60;1.30;;;;;;;15.73;55.60;100530.94;4971804;28;125144;-81
2024/04/02 09:34:05;;;;;;;5.82;1.10;;;;;;;15.86;55.13;100535.38;4956360;28;123438;-81
2024/04/02 09:36:42;;;;;;;6.97;1.60;;;;;;;15.95;54.91;100529.38;4952970;28;115243;-82
2024/04/02 09:39:11;;;;;;;6.63;1.15;;;;;;;16.04;54.75;100526.03;4939722;28;115677;-83
2024/04/02 09:41:40;;;;;;;5.22;1.40;;;;;;;16.13;54.74;100530.72;4958541;28;124598;-82
2024/04/02 09:44:10;;;;;;;8.93;1.38;;;;;;;16.24;54.31;100534.44;4948841;28;123234;-82
2024/04/02 09:46:38;;;;;;;4.03;1.27;;;;;;;16.34;54.55;100530.09;4943809;28;113142;-85
2024/04/02 09:49:07;;;;;;;7.88;1.48;;;;;;;16.42;54.21;100533.03;4954894;28;115322;-81
2024/04/02 09:51:33;;;;;;;6.82;1.67;;;;;;;16.46;54.02;100534.53;4951570;28;125236;-82
2024/04/02 09:54:02;;;;;;;7.82;1.50;;;;;;;16.52;53.93;100523.38;4927987;28;127265;-82
2024/04/02 09:56:33;;;;;;;5.85;1.20;;;;;;;16.59;53.89;100545.13;4929328;28;115154;-83
2024/04/02 09:59:00;;;;;;;6.47;1.30;;;;;;;16.65;53.58;100538.47;4950372;28;114781;-81
2024/04/02 10:01:29;;;;;;;5.65;1.38;;;;;;;16.73;53.53;100536.09;4934601;28;125173;-82
2024/04/02 10:04:00;;;;;;;4.50;1.30;;;;;;;16.75;53.25;100539.50;4960280;28;125468;-81
2024/04/02 10:06:26;;;;;;;3.90;0.80;;;;;;;16.75;53.17;100544.84;4945177;28;115322;-82
2024/04/02 10:08:57;;;;;;;6.13;1.20;;;;;;;16.71;53.06;100538.88;4931507;28;112199;-84
2024/04/02 10:11:30;;;;;;;5.72;1.42;;;;;;;16.69;53.01;100550.69;4942080;28;125038;-82
2024/04/02 10:14:02;;;;;;;4.80;1.02;;;;;;;16.66;52.50;100545.53;4948027;28;125128;-82
2024/04/02 10:16:33;;;;;;;4.60;1.20;;;;;;;16.62;52.68;100549.44;4932418;28;116033;-82
2024/04/02 10:19:01;;;;;;;3.63;1.40;;;;;;;16.52;52.72;100552.78;4952342;28;113764;-82
2024/04/02 10:21:30;;;;;;;3.25;1.00;;;;;;;16.41;52.84;100563.44;4947528;28;125110;-82
2024/04/02 10:23:58;;;;;;;3.20;1.35;;;;;;;16.31;53.14;100563.25;4948256;28;125026;-84
2024/04/02 10:26:31;;;;;;;2.90;1.33;;;;;;;16.20;53.36;100559.63;4946577;28;114206;-85
2024/04/02 10:28:58;;;;;;;3.85;1.40;;;;;;;16.13;53.71;100560.09;4951965;28;115759;-82
2024/04/02 10:31:41;;;;;;;3.92;1.20;;;;;;;16.09;54.13;100563.13;4951114;28;123671;-83
2024/04/02 10:34:08;;;;;;;3.70;1.33;;;;;;;16.08;54.19;100562.25;4943754;28;124504;-83
2024/04/02 10:36:36;;;;;;;6.45;1.33;;;;;;;16.03;54.16;100559.06;4948708;28;115243;-88
2024/04/02 10:39:03;;;;;;;4.40;1.40;;;;;;;16.00;54.46;100559.28;4935593;28;115241;-83
2024/04/02 10:41:31;;;;;;;5.22;1.33;;;;;;;15.97;54.48;100564.84;4955639;28;123497;-83
2024/04/02 10:43:58;;;;;;;5.55;1.50;;;;;;;15.95;54.42;100556.09;4970530;28;122951;-84
2024/04/02 10:46:25;;;;;;;5.93;1.60;;;;;;;15.95;54.83;100566.78;4950705;28;114255;-83
2024/04/02 10:48:56;;;;;;;3.95;1.65;;;;;;;15.93;54.76;100566.88;4952079;28;115897;-83
2024/04/02 10:51:22;;;;;;;6.10;1.88;;;;;;;15.91;54.94;100565.28;4937483;28;123354;-85
2024/04/02 10:53:48;;;;;;;4.35;1.65;;;;;;;15.89;55.12;100561.88;4957739;28;127865;-82
2024/04/02 10:56:15;;;;;;;6.75;1.63;;;;;;;15.88;55.00;100560.16;4955063;28;114763;-83
2024/04/02 10:58:42;;;;;;;3.60;1.70;;;;;;;15.85;54.86;100555.06;4950859;28;111966;-84
2024/04/02 11:01:09;;;;;;;3.53;1.58;;;;;;;15.83;55.15;100563.19;4945273;28;126241;-82
2024/04/02 11:03:35;;;;;;;5.88;1.60;;;;;;;15.80;55.12;100557.19;4960690;28;124644;-82
2024/04/02 11:06:03;;;;;;;4.90;1.58;;;;;;;15.72;55.05;100553.22;4952364;28;114548;-83
2024/04/02 11:08:29;;;;;;;4.95;1.67;;;;;;;15.66;55.09;100567.00;4939226;28;112136;-85
2024/04/02 11:10:55;;;;;;;4.43;1.75;;;;;;;15.60;55.16;100562.13;4951437;28;125311;-84
2024/04/02 11:13:28;;;;;;;3.15;1.20;;;;;;;15.54;55.29;100557.22;4953348;28;122119;-84
2024/04/02 11:15:54;;;;;;;3.40;1.05;;;;;;;15.47;54.94;100577.28;4946050;28;114765;-82
2024/04/02 11:18:23;;;;;;;5.50;1.10;;;;;;;15.37;55.02;100577.94;4950034;28;114145;-83
2024/04/02 11:21:00;;;;;;;4.50;1.25;;;;;;;15.28;54.96;100578.56;4962689;28;124205;-85
2024/04/02 11:26:18;;;;;;;;;;;;;;;15.08;55.19;100581.75;4952354;28;115346;-85
2024/04/02 11:28:45;;;;;;;1.42;0.80;;;;;;;15.03;55.09;100595.41;4947893;28;115230;-84
2024/04/02 11:31:12;;;;;;;2.88;1.05;;;;;;;14.94;54.99;100596.88;4950271;28;124820;-82
2024/04/02 11:33:39;;;;;;;1.90;0.70;;;;;;;14.89;55.39;100596.31;4937066;28;125073;-83